sensor_id;sensor_type;location;lat;lon;timestamp;P1;durP1;ratioP1;P2;durP2;ratioP2
52866;SDS011;38739;53.324;6.862;2023-02-28T00:01:28;12.45;;;2.45;;
52866;SDS011;38739;53.324;6.862;2023-02-28T00:03:56;5.60;;;2.53;;
52866;SDS011;38739;53.324;6.862;2023-02-28T00:06:22;6.75;;;2.33;;
52866;SDS011;38739;53.324;6.862;2023-02-28T00:08:49;6.82;;;2.63;;
52866;SDS011;38739;53.324;6.862;2023-02-28T00:11:15;8.00;;;3.42;;
52866;SDS011;38739;53.324;6.862;2023-02-28T00:13:44;11.45;;;3.42;;
52866;SDS011;38739;53.324;6.862;2023-02-28T00:16:12;12.48;;;3.22;;
52866;SDS011;38739;53.324;6.862;2023-02-28T00:18:43;10.90;;;3.58;;
52866;SDS011;38739;53.324;6.862;2023-02-28T00:21:12;9.88;;;3.65;;
52866;SDS011;38739;53.324;6.862;2023-02-28T00:23:38;9.80;;;3.10;;
52866;SDS011;38739;53.324;6.862;2023-02-28T00:26:04;12.82;;;3.10;;
52866;SDS011;38739;53.324;6.862;2023-02-28T00:28:29;9.52;;;2.50;;
52866;SDS011;38739;53.324;6.862;2023-02-28T00:30:55;9.85;;;2.83;;
52866;SDS011;38739;53.324;6.862;2023-02-28T00:33:22;10.15;;;2.55;;
52866;SDS011;38739;53.324;6.862;2023-02-28T00:35:48;11.05;;;2.63;;
52866;SDS011;38739;53.324;6.862;2023-02-28T00:38:14;10.65;;;2.95;;
52866;SDS011;38739;53.324;6.862;2023-02-28T00:40:40;11.07;;;3.05;;
52866;SDS011;38739;53.324;6.862;2023-02-28T00:43:06;7.38;;;2.50;;
52866;SDS011;38739;53.324;6.862;2023-02-28T00:45:32;11.30;;;2.75;;
52866;SDS011;38739;53.324;6.862;2023-02-28T00:48:00;12.40;;;3.00;;
52866;SDS011;38739;53.324;6.862;2023-02-28T00:50:26;9.25;;;2.55;;
52866;SDS011;38739;53.324;6.862;2023-02-28T00:52:52;6.32;;;2.45;;
52866;SDS011;38739;53.324;6.862;2023-02-28T00:55:20;10.43;;;2.60;;
52866;SDS011;38739;53.324;6.862;2023-02-28T00:57:49;7.40;;;2.70;;
52866;SDS011;38739;53.324;6.862;2023-02-28T01:00:15;10.38;;;2.70;;
52866;SDS011;38739;53.324;6.862;2023-02-28T01:02:40;12.27;;;2.20;;
52866;SDS011;38739;53.324;6.862;2023-02-28T01:05:06;11.07;;;2.75;;
52866;SDS011;38739;53.324;6.862;2023-02-28T01:07:32;10.23;;;2.70;;
52866;SDS011;38739;53.324;6.862;2023-02-28T01:09:58;9.68;;;2.60;;
52866;SDS011;38739;53.324;6.862;2023-02-28T01:12:23;7.40;;;2.72;;
52866;SDS011;38739;53.324;6.862;2023-02-28T01:14:49;8.93;;;2.85;;
52866;SDS011;38739;53.324;6.862;2023-02-28T01:17:15;12.77;;;3.20;;
52866;SDS011;38739;53.324;6.862;2023-02-28T01:19:41;10.27;;;3.10;;
52866;SDS011;38739;53.324;6.862;2023-02-28T01:22:09;8.65;;;2.58;;
52866;SDS011;38739;53.324;6.862;2023-02-28T01:24:38;9.27;;;3.58;;
52866;SDS011;38739;53.324;6.862;2023-02-28T01:27:03;15.23;;;4.80;;
52866;SDS011;38739;53.324;6.862;2023-02-28T01:29:32;14.30;;;4.47;;
52866;SDS011;38739;53.324;6.862;2023-02-28T01:31:57;17.15;;;6.13;;
52866;SDS011;38739;53.324;6.862;2023-02-28T01:34:24;13.70;;;5.20;;
52866;SDS011;38739;53.324;6.862;2023-02-28T01:36:53;14.07;;;5.15;;
52866;SDS011;38739;53.324;6.862;2023-02-28T01:39:19;11.02;;;4.07;;
52866;SDS011;38739;53.324;6.862;2023-02-28T01:41:44;10.98;;;4.28;;
52866;SDS011;38739;53.324;6.862;2023-02-28T01:47:13;13.65;;;4.03;;
52866;SDS011;38739;53.324;6.862;2023-02-28T01:49:40;11.65;;;3.88;;
52866;SDS011;38739;53.324;6.862;2023-02-28T01:52:06;10.45;;;3.85;;
52866;SDS011;38739;53.324;6.862;2023-02-28T01:54:33;11.45;;;3.83;;
52866;SDS011;38739;53.324;6.862;2023-02-28T02:02:11;9.35;;;3.65;;
52866;SDS011;38739;53.324;6.862;2023-02-28T02:04:58;12.73;;;3.40;;
52866;SDS011;38739;53.324;6.862;2023-02-28T02:07:29;14.15;;;3.90;;
52866;SDS011;38739;53.324;6.862;2023-02-28T02:10:04;12.00;;;3.50;;
52866;SDS011;38739;53.324;6.862;2023-02-28T02:21:57;13.63;;;4.03;;
52866;SDS011;38739;53.324;6.862;2023-02-28T02:27:20;12.47;;;4.73;;
52866;SDS011;38739;53.324;6.862;2023-02-28T02:32:49;14.05;;;5.80;;
52866;SDS011;38739;53.324;6.862;2023-02-28T02:35:24;13.45;;;5.40;;
52866;SDS011;38739;53.324;6.862;2023-02-28T02:43:57;10.63;;;5.50;;
52866;SDS011;38739;53.324;6.862;2023-02-28T02:46:36;10.52;;;5.13;;
52866;SDS011;38739;53.324;6.862;2023-02-28T02:51:35;14.40;;;5.65;;
52866;SDS011;38739;53.324;6.862;2023-02-28T02:56:53;14.63;;;6.38;;
52866;SDS011;38739;53.324;6.862;2023-02-28T02:59:22;13.23;;;6.55;;
52866;SDS011;38739;53.324;6.862;2023-02-28T03:01:50;14.35;;;7.13;;
52866;SDS011;38739;53.324;6.862;2023-02-28T03:04:22;17.70;;;7.35;;
52866;SDS011;38739;53.324;6.862;2023-02-28T03:06:52;15.75;;;8.43;;
52866;SDS011;38739;53.324;6.862;2023-02-28T03:09:23;24.38;;;10.63;;
52866;SDS011;38739;53.324;6.862;2023-02-28T03:11:54;21.77;;;10.63;;
52866;SDS011;38739;53.324;6.862;2023-02-28T03:14:33;22.40;;;10.93;;
52866;SDS011;38739;53.324;6.862;2023-02-28T03:22:43;23.00;;;10.32;;
52866;SDS011;38739;53.324;6.862;2023-02-28T03:30:51;23.08;;;10.55;;
52866;SDS011;38739;53.324;6.862;2023-02-28T03:33:23;18.88;;;10.02;;
52866;SDS011;38739;53.324;6.862;2023-02-28T03:36:04;19.48;;;10.68;;
52866;SDS011;38739;53.324;6.862;2023-02-28T03:38:53;19.17;;;10.40;;
52866;SDS011;38739;53.324;6.862;2023-02-28T03:41:42;14.65;;;9.73;;
52866;SDS011;38739;53.324;6.862;2023-02-28T03:44:32;19.63;;;10.85;;
52866;SDS011;38739;53.324;6.862;2023-02-28T03:47:09;18.85;;;10.77;;
52866;SDS011;38739;53.324;6.862;2023-02-28T03:49:40;18.05;;;10.48;;
52866;SDS011;38739;53.324;6.862;2023-02-28T03:52:17;16.77;;;10.55;;
52866;SDS011;38739;53.324;6.862;2023-02-28T03:54:47;19.15;;;11.50;;
52866;SDS011;38739;53.324;6.862;2023-02-28T03:57:25;16.48;;;10.85;;
52866;SDS011;38739;53.324;6.862;2023-02-28T04:00:04;17.08;;;10.77;;
52866;SDS011;38739;53.324;6.862;2023-02-28T04:02:32;18.42;;;10.82;;
52866;SDS011;38739;53.324;6.862;2023-02-28T04:04:59;19.83;;;11.48;;
52866;SDS011;38739;53.324;6.862;2023-02-28T04:07:25;18.48;;;11.43;;
52866;SDS011;38739;53.324;6.862;2023-02-28T04:09:54;18.75;;;11.70;;
52866;SDS011;38739;53.324;6.862;2023-02-28T04:12:20;18.13;;;11.95;;
52866;SDS011;38739;53.324;6.862;2023-02-28T04:14:48;18.15;;;11.07;;
52866;SDS011;38739;53.324;6.862;2023-02-28T04:17:14;18.08;;;11.07;;
52866;SDS011;38739;53.324;6.862;2023-02-28T04:19:40;18.35;;;10.52;;
52866;SDS011;38739;53.324;6.862;2023-02-28T04:22:07;16.15;;;10.65;;
52866;SDS011;38739;53.324;6.862;2023-02-28T04:24:34;17.98;;;10.93;;
52866;SDS011;38739;53.324;6.862;2023-02-28T04:27:00;18.98;;;10.90;;
52866;SDS011;38739;53.324;6.862;2023-02-28T04:29:28;19.17;;;10.60;;
52866;SDS011;38739;53.324;6.862;2023-02-28T04:31:55;20.17;;;11.40;;
52866;SDS011;38739;53.324;6.862;2023-02-28T04:34:25;19.00;;;11.23;;
52866;SDS011;38739;53.324;6.862;2023-02-28T04:36:52;16.60;;;10.85;;
52866;SDS011;38739;53.324;6.862;2023-02-28T04:39:22;17.90;;;11.00;;
52866;SDS011;38739;53.324;6.862;2023-02-28T04:41:49;16.70;;;10.95;;
52866;SDS011;38739;53.324;6.862;2023-02-28T04:44:15;15.35;;;11.07;;
52866;SDS011;38739;53.324;6.862;2023-02-28T04:46:42;18.20;;;11.55;;
52866;SDS011;38739;53.324;6.862;2023-02-28T04:49:09;17.52;;;11.90;;
52866;SDS011;38739;53.324;6.862;2023-02-28T04:51:37;19.20;;;11.23;;
52866;SDS011;38739;53.324;6.862;2023-02-28T04:54:02;16.65;;;11.77;;
52866;SDS011;38739;53.324;6.862;2023-02-28T04:56:31;17.02;;;11.45;;
52866;SDS011;38739;53.324;6.862;2023-02-28T04:58:57;17.40;;;11.70;;
52866;SDS011;38739;53.324;6.862;2023-02-28T05:01:27;17.17;;;11.70;;
52866;SDS011;38739;53.324;6.862;2023-02-28T05:03:55;16.65;;;11.48;;
52866;SDS011;38739;53.324;6.862;2023-02-28T05:06:24;18.27;;;11.10;;
52866;SDS011;38739;53.324;6.862;2023-02-28T05:08:51;17.33;;;10.68;;
52866;SDS011;38739;53.324;6.862;2023-02-28T05:11:19;14.80;;;10.05;;
52866;SDS011;38739;53.324;6.862;2023-02-28T05:13:48;15.73;;;10.15;;
52866;SDS011;38739;53.324;6.862;2023-02-28T05:16:14;15.85;;;10.10;;
52866;SDS011;38739;53.324;6.862;2023-02-28T05:18:44;17.13;;;10.50;;
52866;SDS011;38739;53.324;6.862;2023-02-28T05:21:23;17.75;;;10.73;;
52866;SDS011;38739;53.324;6.862;2023-02-28T05:23:52;19.75;;;10.90;;
52866;SDS011;38739;53.324;6.862;2023-02-28T05:26:18;16.48;;;9.98;;
52866;SDS011;38739;53.324;6.862;2023-02-28T05:28:44;15.75;;;9.32;;
52866;SDS011;38739;53.324;6.862;2023-02-28T05:31:10;16.10;;;9.38;;
52866;SDS011;38739;53.324;6.862;2023-02-28T05:33:39;13.45;;;8.57;;
52866;SDS011;38739;53.324;6.862;2023-02-28T05:36:05;14.10;;;9.38;;
52866;SDS011;38739;53.324;6.862;2023-02-28T05:38:34;13.85;;;9.02;;
52866;SDS011;38739;53.324;6.862;2023-02-28T05:41:04;15.23;;;9.02;;
52866;SDS011;38739;53.324;6.862;2023-02-28T05:43:30;12.52;;;8.88;;
52866;SDS011;38739;53.324;6.862;2023-02-28T05:45:56;15.93;;;9.32;;
52866;SDS011;38739;53.324;6.862;2023-02-28T05:48:22;15.20;;;9.73;;
52866;SDS011;38739;53.324;6.862;2023-02-28T05:50:47;17.67;;;9.93;;
52866;SDS011;38739;53.324;6.862;2023-02-28T05:53:13;14.18;;;9.23;;
52866;SDS011;38739;53.324;6.862;2023-02-28T05:55:39;16.38;;;9.15;;
52866;SDS011;38739;53.324;6.862;2023-02-28T05:58:06;14.15;;;8.65;;
52866;SDS011;38739;53.324;6.862;2023-02-28T06:00:31;14.05;;;9.15;;
52866;SDS011;38739;53.324;6.862;2023-02-28T06:02:57;14.23;;;8.80;;
52866;SDS011;38739;53.324;6.862;2023-02-28T06:05:26;12.75;;;9.18;;
52866;SDS011;38739;53.324;6.862;2023-02-28T06:07:53;14.63;;;9.55;;
52866;SDS011;38739;53.324;6.862;2023-02-28T06:10:18;17.23;;;9.70;;
52866;SDS011;38739;53.324;6.862;2023-02-28T06:12:47;17.67;;;11.07;;
52866;SDS011;38739;53.324;6.862;2023-02-28T06:15:13;18.83;;;11.38;;
52866;SDS011;38739;53.324;6.862;2023-02-28T06:17:40;19.95;;;11.57;;
52866;SDS011;38739;53.324;6.862;2023-02-28T06:20:07;19.77;;;11.48;;
52866;SDS011;38739;53.324;6.862;2023-02-28T06:22:34;18.13;;;11.10;;
52866;SDS011;38739;53.324;6.862;2023-02-28T06:25:03;21.50;;;12.25;;
52866;SDS011;38739;53.324;6.862;2023-02-28T06:27:30;21.42;;;12.07;;
52866;SDS011;38739;53.324;6.862;2023-02-28T06:30:00;18.88;;;11.38;;
52866;SDS011;38739;53.324;6.862;2023-02-28T06:32:26;21.40;;;12.73;;
52866;SDS011;38739;53.324;6.862;2023-02-28T06:34:51;20.45;;;12.55;;
52866;SDS011;38739;53.324;6.862;2023-02-28T06:37:18;22.00;;;12.00;;
52866;SDS011;38739;53.324;6.862;2023-02-28T06:39:44;24.65;;;13.18;;
52866;SDS011;38739;53.324;6.862;2023-02-28T06:42:09;22.08;;;13.07;;
52866;SDS011;38739;53.324;6.862;2023-02-28T06:44:35;23.38;;;12.85;;
52866;SDS011;38739;53.324;6.862;2023-02-28T06:47:42;23.13;;;13.95;;
52866;SDS011;38739;53.324;6.862;2023-02-28T06:50:12;22.15;;;13.07;;
52866;SDS011;38739;53.324;6.862;2023-02-28T06:52:38;23.60;;;13.80;;
52866;SDS011;38739;53.324;6.862;2023-02-28T06:55:10;24.77;;;13.68;;
52866;SDS011;38739;53.324;6.862;2023-02-28T06:57:37;25.02;;;14.00;;
52866;SDS011;38739;53.324;6.862;2023-02-28T07:00:04;25.20;;;13.63;;
52866;SDS011;38739;53.324;6.862;2023-02-28T07:02:34;25.20;;;13.82;;
52866;SDS011;38739;53.324;6.862;2023-02-28T07:05:06;27.42;;;14.60;;
52866;SDS011;38739;53.324;6.862;2023-02-28T07:07:32;23.70;;;14.00;;
52866;SDS011;38739;53.324;6.862;2023-02-28T07:10:03;24.65;;;13.85;;
52866;SDS011;38739;53.324;6.862;2023-02-28T07:12:29;23.63;;;13.77;;
52866;SDS011;38739;53.324;6.862;2023-02-28T07:14:58;24.38;;;14.88;;
52866;SDS011;38739;53.324;6.862;2023-02-28T07:17:26;26.02;;;14.57;;
52866;SDS011;38739;53.324;6.862;2023-02-28T07:19:52;30.60;;;14.77;;
52866;SDS011;38739;53.324;6.862;2023-02-28T07:22:18;25.83;;;13.60;;
52866;SDS011;38739;53.324;6.862;2023-02-28T07:24:43;25.23;;;14.27;;
52866;SDS011;38739;53.324;6.862;2023-02-28T07:27:09;26.85;;;14.38;;
52866;SDS011;38739;53.324;6.862;2023-02-28T07:29:35;23.38;;;13.32;;
52866;SDS011;38739;53.324;6.862;2023-02-28T07:32:01;22.85;;;13.10;;
52866;SDS011;38739;53.324;6.862;2023-02-28T07:34:29;28.83;;;14.10;;
52866;SDS011;38739;53.324;6.862;2023-02-28T07:36:55;24.58;;;13.85;;
52866;SDS011;38739;53.324;6.862;2023-02-28T07:39:29;22.83;;;13.07;;
52866;SDS011;38739;53.324;6.862;2023-02-28T07:42:04;22.98;;;13.23;;
52866;SDS011;38739;53.324;6.862;2023-02-28T07:44:31;22.77;;;13.00;;
52866;SDS011;38739;53.324;6.862;2023-02-28T07:46:57;26.20;;;15.10;;
52866;SDS011;38739;53.324;6.862;2023-02-28T07:49:23;22.02;;;13.48;;
52866;SDS011;38739;53.324;6.862;2023-02-28T07:51:48;25.45;;;14.07;;
52866;SDS011;38739;53.324;6.862;2023-02-28T07:54:14;22.50;;;13.48;;
52866;SDS011;38739;53.324;6.862;2023-02-28T07:56:42;21.73;;;13.60;;
52866;SDS011;38739;53.324;6.862;2023-02-28T07:59:11;22.42;;;12.85;;
52866;SDS011;38739;53.324;6.862;2023-02-28T08:01:37;19.23;;;12.75;;
52866;SDS011;38739;53.324;6.862;2023-02-28T08:04:03;20.60;;;12.23;;
52866;SDS011;38739;53.324;6.862;2023-02-28T08:06:28;20.40;;;11.82;;
52866;SDS011;38739;53.324;6.862;2023-02-28T08:08:54;20.08;;;12.60;;
52866;SDS011;38739;53.324;6.862;2023-02-28T08:11:21;23.08;;;12.65;;
52866;SDS011;38739;53.324;6.862;2023-02-28T08:13:46;22.40;;;12.80;;
52866;SDS011;38739;53.324;6.862;2023-02-28T08:16:13;21.70;;;13.25;;
52866;SDS011;38739;53.324;6.862;2023-02-28T08:18:42;22.23;;;12.80;;
52866;SDS011;38739;53.324;6.862;2023-02-28T08:21:09;21.45;;;12.80;;
52866;SDS011;38739;53.324;6.862;2023-02-28T08:23:38;20.25;;;13.15;;
52866;SDS011;38739;53.324;6.862;2023-02-28T08:26:04;22.60;;;12.80;;
52866;SDS011;38739;53.324;6.862;2023-02-28T08:28:32;21.83;;;13.00;;
52866;SDS011;38739;53.324;6.862;2023-02-28T08:30:58;25.85;;;13.80;;
52866;SDS011;38739;53.324;6.862;2023-02-28T08:33:24;23.92;;;12.88;;
52866;SDS011;38739;53.324;6.862;2023-02-28T08:35:52;22.88;;;12.40;;
52866;SDS011;38739;53.324;6.862;2023-02-28T08:38:19;18.17;;;11.95;;
52866;SDS011;38739;53.324;6.862;2023-02-28T08:40:45;18.35;;;11.23;;
52866;SDS011;38739;53.324;6.862;2023-02-28T08:43:10;19.55;;;11.90;;
52866;SDS011;38739;53.324;6.862;2023-02-28T08:45:36;22.52;;;12.27;;
52866;SDS011;38739;53.324;6.862;2023-02-28T08:48:02;23.15;;;12.50;;
52866;SDS011;38739;53.324;6.862;2023-02-28T08:50:28;22.75;;;12.75;;
52866;SDS011;38739;53.324;6.862;2023-02-28T08:52:54;22.55;;;12.82;;
52866;SDS011;38739;53.324;6.862;2023-02-28T08:55:20;20.08;;;12.93;;
52866;SDS011;38739;53.324;6.862;2023-02-28T08:57:45;19.30;;;12.15;;
52866;SDS011;38739;53.324;6.862;2023-02-28T09:00:14;20.58;;;12.48;;
52866;SDS011;38739;53.324;6.862;2023-02-28T09:02:40;19.95;;;12.63;;
52866;SDS011;38739;53.324;6.862;2023-02-28T09:05:07;21.88;;;13.27;;
52866;SDS011;38739;53.324;6.862;2023-02-28T09:07:33;23.23;;;13.32;;
52866;SDS011;38739;53.324;6.862;2023-02-28T09:09:59;24.15;;;13.57;;
52866;SDS011;38739;53.324;6.862;2023-02-28T09:12:25;22.15;;;13.15;;
52866;SDS011;38739;53.324;6.862;2023-02-28T09:14:52;23.50;;;13.13;;
52866;SDS011;38739;53.324;6.862;2023-02-28T09:17:19;23.73;;;13.57;;
52866;SDS011;38739;53.324;6.862;2023-02-28T09:19:45;21.98;;;12.85;;
52866;SDS011;38739;53.324;6.862;2023-02-28T09:22:13;21.77;;;12.43;;
52866;SDS011;38739;53.324;6.862;2023-02-28T09:24:39;21.02;;;12.80;;
52866;SDS011;38739;53.324;6.862;2023-02-28T09:27:05;24.55;;;13.20;;
52866;SDS011;38739;53.324;6.862;2023-02-28T09:29:31;22.30;;;13.13;;
52866;SDS011;38739;53.324;6.862;2023-02-28T09:31:58;22.40;;;13.75;;
52866;SDS011;38739;53.324;6.862;2023-02-28T09:34:24;20.52;;;12.48;;
52866;SDS011;38739;53.324;6.862;2023-02-28T09:36:53;20.33;;;12.73;;
52866;SDS011;38739;53.324;6.862;2023-02-28T09:39:20;23.67;;;12.63;;
52866;SDS011;38739;53.324;6.862;2023-02-28T09:41:47;19.13;;;11.90;;
52866;SDS011;38739;53.324;6.862;2023-02-28T09:49:45;18.85;;;11.57;;
52866;SDS011;38739;53.324;6.862;2023-02-28T09:52:20;18.48;;;11.05;;
52866;SDS011;38739;53.324;6.862;2023-02-28T09:54:52;15.80;;;10.80;;
52866;SDS011;38739;53.324;6.862;2023-02-28T10:05:19;17.50;;;10.57;;
52866;SDS011;38739;53.324;6.862;2023-02-28T10:10:57;16.70;;;9.98;;
52866;SDS011;38739;53.324;6.862;2023-02-28T10:15:52;15.95;;;9.73;;
52866;SDS011;38739;53.324;6.862;2023-02-28T10:18:59;15.38;;;10.10;;
52866;SDS011;38739;53.324;6.862;2023-02-28T10:21:40;14.10;;;9.73;;
52866;SDS011;38739;53.324;6.862;2023-02-28T10:24:41;19.63;;;9.63;;
52866;SDS011;38739;53.324;6.862;2023-02-28T10:27:24;13.98;;;9.77;;
52866;SDS011;38739;53.324;6.862;2023-02-28T10:29:55;15.27;;;10.55;;
52866;SDS011;38739;53.324;6.862;2023-02-28T10:32:37;15.10;;;9.70;;
52866;SDS011;38739;53.324;6.862;2023-02-28T10:37:48;12.98;;;8.82;;
52866;SDS011;38739;53.324;6.862;2023-02-28T10:43:00;15.85;;;9.52;;
52866;SDS011;38739;53.324;6.862;2023-02-28T10:45:29;13.40;;;8.95;;
52866;SDS011;38739;53.324;6.862;2023-02-28T11:04:16;18.60;;;10.20;;
52866;SDS011;38739;53.324;6.862;2023-02-28T11:06:46;13.20;;;9.43;;
52866;SDS011;38739;53.324;6.862;2023-02-28T11:09:26;13.30;;;9.68;;
52866;SDS011;38739;53.324;6.862;2023-02-28T11:12:04;17.33;;;8.95;;
52866;SDS011;38739;53.324;6.862;2023-02-28T11:14:39;12.32;;;8.23;;
52866;SDS011;38739;53.324;6.862;2023-02-28T11:17:22;12.05;;;9.20;;
52866;SDS011;38739;53.324;6.862;2023-02-28T11:19:51;13.40;;;9.32;;
52866;SDS011;38739;53.324;6.862;2023-02-28T11:22:24;14.05;;;8.55;;
52866;SDS011;38739;53.324;6.862;2023-02-28T11:24:57;12.65;;;9.32;;
52866;SDS011;38739;53.324;6.862;2023-02-28T11:27:40;13.38;;;9.00;;
52866;SDS011;38739;53.324;6.862;2023-02-28T11:30:28;14.10;;;9.48;;
52866;SDS011;38739;53.324;6.862;2023-02-28T11:33:00;12.10;;;9.02;;
52866;SDS011;38739;53.324;6.862;2023-02-28T11:35:45;13.05;;;9.27;;
52866;SDS011;38739;53.324;6.862;2023-02-28T11:38:17;12.73;;;8.77;;
52866;SDS011;38739;53.324;6.862;2023-02-28T11:40:53;12.05;;;8.50;;
52866;SDS011;38739;53.324;6.862;2023-02-28T11:49:22;13.27;;;8.02;;
52866;SDS011;38739;53.324;6.862;2023-02-28T11:51:32;10.43;;;7.60;;
52866;SDS011;38739;53.324;6.862;2023-02-28T11:57:03;10.73;;;7.85;;
52866;SDS011;38739;53.324;6.862;2023-02-28T11:59:49;12.80;;;7.80;;
52866;SDS011;38739;53.324;6.862;2023-02-28T12:10:29;11.48;;;7.97;;
52866;SDS011;38739;53.324;6.862;2023-02-28T12:13:43;18.10;;;8.80;;
52866;SDS011;38739;53.324;6.862;2023-02-28T12:18:58;12.88;;;8.05;;
52866;SDS011;38739;53.324;6.862;2023-02-28T12:22:03;10.63;;;7.53;;
52866;SDS011;38739;53.324;6.862;2023-02-28T12:27:45;12.88;;;8.93;;
52866;SDS011;38739;53.324;6.862;2023-02-28T12:30:17;12.13;;;9.63;;
52866;SDS011;38739;53.324;6.862;2023-02-28T12:32:52;12.55;;;9.23;;
52866;SDS011;38739;53.324;6.862;2023-02-28T12:38:26;13.20;;;9.55;;
52866;SDS011;38739;53.324;6.862;2023-02-28T12:41:02;13.02;;;9.23;;
52866;SDS011;38739;53.324;6.862;2023-02-28T12:43:35;15.07;;;9.48;;
52866;SDS011;38739;53.324;6.862;2023-02-28T12:46:13;12.38;;;8.60;;
52866;SDS011;38739;53.324;6.862;2023-02-28T12:48:50;11.68;;;8.20;;
52866;SDS011;38739;53.324;6.862;2023-02-28T12:51:21;12.80;;;8.80;;
52866;SDS011;38739;53.324;6.862;2023-02-28T12:53:53;12.63;;;8.18;;
52866;SDS011;38739;53.324;6.862;2023-02-28T12:56:30;10.05;;;8.13;;
52866;SDS011;38739;53.324;6.862;2023-02-28T12:59:20;10.88;;;8.45;;
52866;SDS011;38739;53.324;6.862;2023-02-28T13:04:55;11.00;;;6.72;;
52866;SDS011;38739;53.324;6.862;2023-02-28T13:10:41;10.98;;;7.13;;
52866;SDS011;38739;53.324;6.862;2023-02-28T13:13:13;9.63;;;6.28;;
52866;SDS011;38739;53.324;6.862;2023-02-28T13:16:00;7.68;;;4.85;;
52866;SDS011;38739;53.324;6.862;2023-02-28T13:18:30;6.45;;;5.35;;
52866;SDS011;38739;53.324;6.862;2023-02-28T13:21:22;8.07;;;6.15;;
52866;SDS011;38739;53.324;6.862;2023-02-28T13:26:29;9.48;;;5.45;;
52866;SDS011;38739;53.324;6.862;2023-02-28T13:34:30;9.68;;;6.22;;
52866;SDS011;38739;53.324;6.862;2023-02-28T13:45:29;9.00;;;5.93;;
52866;SDS011;38739;53.324;6.862;2023-02-28T13:47:36;9.32;;;5.88;;
52866;SDS011;38739;53.324;6.862;2023-02-28T14:07:16;9.55;;;6.65;;
52866;SDS011;38739;53.324;6.862;2023-02-28T14:09:55;7.72;;;6.20;;
52866;SDS011;38739;53.324;6.862;2023-02-28T14:15:49;9.30;;;7.20;;
52866;SDS011;38739;53.324;6.862;2023-02-28T14:20:58;8.20;;;6.65;;
52866;SDS011;38739;53.324;6.862;2023-02-28T14:38:04;12.52;;;7.28;;
52866;SDS011;38739;53.324;6.862;2023-02-28T14:40:33;13.40;;;7.53;;
52866;SDS011;38739;53.324;6.862;2023-02-28T14:43:04;10.57;;;7.40;;
52866;SDS011;38739;53.324;6.862;2023-02-28T14:45:34;11.10;;;7.65;;
52866;SDS011;38739;53.324;6.862;2023-02-28T14:48:02;9.35;;;7.07;;
52866;SDS011;38739;53.324;6.862;2023-02-28T14:50:35;10.80;;;7.32;;
52866;SDS011;38739;53.324;6.862;2023-02-28T14:53:02;10.45;;;7.40;;
52866;SDS011;38739;53.324;6.862;2023-02-28T14:55:29;12.45;;;7.68;;
52866;SDS011;38739;53.324;6.862;2023-02-28T14:58:03;13.18;;;7.60;;
52866;SDS011;38739;53.324;6.862;2023-02-28T15:00:46;11.40;;;7.78;;
52866;SDS011;38739;53.324;6.862;2023-02-28T15:03:34;11.18;;;7.25;;
52866;SDS011;38739;53.324;6.862;2023-02-28T15:06:05;11.50;;;7.80;;
52866;SDS011;38739;53.324;6.862;2023-02-28T15:08:37;11.65;;;7.75;;
52866;SDS011;38739;53.324;6.862;2023-02-28T15:11:13;14.38;;;7.75;;
52866;SDS011;38739;53.324;6.862;2023-02-28T15:13:45;14.48;;;8.40;;
52866;SDS011;38739;53.324;6.862;2023-02-28T15:16:17;11.23;;;8.45;;
52866;SDS011;38739;53.324;6.862;2023-02-28T15:18:51;10.52;;;8.15;;
52866;SDS011;38739;53.324;6.862;2023-02-28T15:21:21;11.77;;;8.00;;
52866;SDS011;38739;53.324;6.862;2023-02-28T15:26:30;11.38;;;8.55;;
52866;SDS011;38739;53.324;6.862;2023-02-28T15:29:10;12.00;;;8.73;;
52866;SDS011;38739;53.324;6.862;2023-02-28T15:31:45;15.57;;;8.75;;
52866;SDS011;38739;53.324;6.862;2023-02-28T15:34:18;16.65;;;9.05;;
52866;SDS011;38739;53.324;6.862;2023-02-28T15:36:46;13.07;;;8.68;;
52866;SDS011;38739;53.324;6.862;2023-02-28T15:39:25;10.70;;;8.07;;
52866;SDS011;38739;53.324;6.862;2023-02-28T15:42:12;11.15;;;7.82;;
52866;SDS011;38739;53.324;6.862;2023-02-28T15:44:43;12.15;;;8.43;;
52866;SDS011;38739;53.324;6.862;2023-02-28T15:47:27;11.88;;;8.70;;
52866;SDS011;38739;53.324;6.862;2023-02-28T15:49:57;13.15;;;9.50;;
52866;SDS011;38739;53.324;6.862;2023-02-28T15:55:20;14.35;;;9.40;;
52866;SDS011;38739;53.324;6.862;2023-02-28T15:57:53;16.98;;;9.88;;
52866;SDS011;38739;53.324;6.862;2023-02-28T16:00:23;13.05;;;9.43;;
52866;SDS011;38739;53.324;6.862;2023-02-28T16:02:50;13.02;;;9.23;;
52866;SDS011;38739;53.324;6.862;2023-02-28T16:05:29;13.43;;;9.52;;
52866;SDS011;38739;53.324;6.862;2023-02-28T16:08:01;13.02;;;9.57;;
52866;SDS011;38739;53.324;6.862;2023-02-28T16:10:37;14.27;;;9.50;;
52866;SDS011;38739;53.324;6.862;2023-02-28T16:13:02;11.65;;;9.23;;
52866;SDS011;38739;53.324;6.862;2023-02-28T16:15:29;14.57;;;10.20;;
52866;SDS011;38739;53.324;6.862;2023-02-28T16:17:59;12.60;;;9.15;;
52866;SDS011;38739;53.324;6.862;2023-02-28T16:20:29;12.80;;;9.70;;
52866;SDS011;38739;53.324;6.862;2023-02-28T16:22:55;13.35;;;10.30;;
52866;SDS011;38739;53.324;6.862;2023-02-28T16:25:29;15.63;;;11.20;;
52866;SDS011;38739;53.324;6.862;2023-02-28T16:28:30;16.40;;;11.57;;
52866;SDS011;38739;53.324;6.862;2023-02-28T16:30:57;15.23;;;11.52;;
52866;SDS011;38739;53.324;6.862;2023-02-28T16:33:27;16.33;;;11.88;;
52866;SDS011;38739;53.324;6.862;2023-02-28T16:35:53;18.63;;;14.35;;
52866;SDS011;38739;53.324;6.862;2023-02-28T16:38:19;17.80;;;13.93;;
52866;SDS011;38739;53.324;6.862;2023-02-28T16:40:46;14.73;;;11.00;;
52866;SDS011;38739;53.324;6.862;2023-02-28T16:43:16;18.02;;;11.25;;
52866;SDS011;38739;53.324;6.862;2023-02-28T16:45:46;14.73;;;10.45;;
52866;SDS011;38739;53.324;6.862;2023-02-28T16:48:13;13.73;;;10.13;;
52866;SDS011;38739;53.324;6.862;2023-02-28T16:50:40;16.13;;;10.43;;
52866;SDS011;38739;53.324;6.862;2023-02-28T16:53:06;16.67;;;11.23;;
52866;SDS011;38739;53.324;6.862;2023-02-28T16:55:31;14.68;;;10.77;;
52866;SDS011;38739;53.324;6.862;2023-02-28T16:58:00;16.30;;;10.68;;
52866;SDS011;38739;53.324;6.862;2023-02-28T17:00:27;14.48;;;10.00;;
52866;SDS011;38739;53.324;6.862;2023-02-28T17:02:56;14.63;;;10.15;;
52866;SDS011;38739;53.324;6.862;2023-02-28T17:05:22;14.93;;;10.13;;
52866;SDS011;38739;53.324;6.862;2023-02-28T17:07:48;16.85;;;10.68;;
52866;SDS011;38739;53.324;6.862;2023-02-28T17:10:18;14.00;;;9.85;;
52866;SDS011;38739;53.324;6.862;2023-02-28T17:12:47;13.73;;;9.55;;
52866;SDS011;38739;53.324;6.862;2023-02-28T17:15:13;14.60;;;9.18;;
52866;SDS011;38739;53.324;6.862;2023-02-28T17:17:43;14.63;;;10.20;;
52866;SDS011;38739;53.324;6.862;2023-02-28T17:20:14;14.02;;;10.00;;
52866;SDS011;38739;53.324;6.862;2023-02-28T17:22:47;14.48;;;9.75;;
52866;SDS011;38739;53.324;6.862;2023-02-28T17:25:13;14.45;;;9.13;;
52866;SDS011;38739;53.324;6.862;2023-02-28T17:27:39;14.68;;;9.80;;
52866;SDS011;38739;53.324;6.862;2023-02-28T17:32:55;15.55;;;9.95;;
52866;SDS011;38739;53.324;6.862;2023-02-28T17:35:21;16.73;;;9.60;;
52866;SDS011;38739;53.324;6.862;2023-02-28T17:37:48;15.95;;;9.40;;
52866;SDS011;38739;53.324;6.862;2023-02-28T17:40:15;17.15;;;9.70;;
52866;SDS011;38739;53.324;6.862;2023-02-28T17:42:42;13.30;;;10.00;;
52866;SDS011;38739;53.324;6.862;2023-02-28T17:45:08;17.70;;;10.32;;
52866;SDS011;38739;53.324;6.862;2023-02-28T17:47:34;18.08;;;10.10;;